Terminal Aerodrome Forecast
Issued by NWS Atlanta, GA

Home | Current Version | Previous Version | Text Only | Print | Product List | Glossary On
Versions: 1 2 3 4 5 6 7 8 9 10 11 12 13 14 15 16 17
000
FTUS42 KFFC 242337
TAFCSG
TAF
KCSG 242337Z 2500/2524 VRB04KT P6SM SCT090
     FM250200 00000KT P6SM SKC
     FM251500 26003KT P6SM SCT035
     FM251800 25006KT P6SM VCSH SCT050 PROB30 2519/2522 6SM -TSRA
      BKN040CB=

USA.gov is the U.S. government's official web portal to all federal, state and local government web resources and services.